createdAt,value
2023-04-30T00:01:13.806Z,9.47
2023-04-30T00:03:40.742Z,9.17
2023-04-30T00:06:07.674Z,9.27
2023-04-30T00:08:34.692Z,9.70
2023-04-30T00:11:01.528Z,8.97
2023-04-30T00:13:28.350Z,9.70
2023-04-30T00:15:55.203Z,10.70
2023-04-30T00:18:22.044Z,9.90
2023-04-30T00:20:48.873Z,10.00
2023-04-30T00:23:15.768Z,9.60
2023-04-30T00:25:42.576Z,10.20
2023-04-30T00:28:09.360Z,10.10
2023-04-30T00:30:36.338Z,10.60
2023-04-30T00:33:03.209Z,11.23
2023-04-30T00:35:30.050Z,10.37
2023-04-30T00:37:56.864Z,10.90
2023-04-30T00:40:23.668Z,10.27
2023-04-30T00:42:52.482Z,10.70
2023-04-30T00:45:22.209Z,10.23
2023-04-30T00:47:49.473Z,10.40
2023-04-30T00:50:16.655Z,12.10
2023-04-30T00:52:44.575Z,12.70
2023-04-30T00:55:14.527Z,11.80
2023-04-30T00:57:41.573Z,12.97
2023-04-30T01:00:12.151Z,12.00
2023-04-30T01:02:39.430Z,11.73
2023-04-30T01:05:07.620Z,11.73
2023-04-30T01:07:41.607Z,12.20
2023-04-30T01:10:09.338Z,11.80
2023-04-30T01:12:44.757Z,12.57
2023-04-30T01:15:26.130Z,12.33
2023-04-30T01:18:12.690Z,12.27
2023-04-30T01:21:09.339Z,17.43
2023-04-30T01:23:53.497Z,12.10
2023-04-30T01:26:39.120Z,12.47
2023-04-30T01:29:06.682Z,13.50
2023-04-30T01:31:33.600Z,12.87
2023-04-30T01:34:00.433Z,12.50
2023-04-30T01:36:43.260Z,14.10
2023-04-30T01:39:31.096Z,14.10
2023-04-30T01:42:22.019Z,14.00
2023-04-30T01:45:03.316Z,13.73
2023-04-30T01:47:53.812Z,13.63
2023-04-30T01:50:47.287Z,13.33
2023-04-30T01:53:23.720Z,14.10
2023-04-30T01:56:12.695Z,12.87
2023-04-30T01:58:41.015Z,14.70
2023-04-30T02:01:08.000Z,14.57
2023-04-30T02:03:34.979Z,15.13
2023-04-30T02:06:01.988Z,14.67
2023-04-30T02:08:28.824Z,14.07
2023-04-30T02:10:55.878Z,14.40
2023-04-30T02:13:22.685Z,15.73
2023-04-30T02:15:49.515Z,15.70
2023-04-30T02:18:16.551Z,15.70
2023-04-30T02:20:44.382Z,15.83
2023-04-30T02:23:11.261Z,17.73
2023-04-30T02:25:39.391Z,15.70
2023-04-30T02:28:06.298Z,16.30
2023-04-30T02:30:33.191Z,15.53
2023-04-30T02:33:00.293Z,15.53
2023-04-30T02:35:27.160Z,15.33
2023-04-30T02:37:54.035Z,16.53
2023-04-30T02:40:20.841Z,17.30
2023-04-30T02:42:48.411Z,17.20
2023-04-30T02:45:15.363Z,15.40
2023-04-30T02:47:42.210Z,16.90
2023-04-30T02:50:09.823Z,18.73
2023-04-30T02:52:36.672Z,18.20
2023-04-30T02:55:04.400Z,19.47
2023-04-30T02:57:31.239Z,17.00
2023-04-30T03:12:00.029Z,17.90
2023-04-30T03:14:26.875Z,19.97
2023-04-30T03:16:53.682Z,20.60
2023-04-30T03:19:25.196Z,19.50
2023-04-30T03:21:52.702Z,19.67
2023-04-30T03:24:19.632Z,20.17
2023-04-30T03:26:47.308Z,19.07
2023-04-30T03:29:14.208Z,19.90
2023-04-30T03:31:41.145Z,21.23
2023-04-30T03:34:08.096Z,19.30
2023-04-30T03:36:35.056Z,18.80
2023-04-30T03:39:02.397Z,20.10
2023-04-30T03:41:29.218Z,18.43
2023-04-30T03:43:56.257Z,19.50
2023-04-30T03:46:23.298Z,18.63
2023-04-30T03:48:50.217Z,20.17
2023-04-30T03:51:18.749Z,20.37
2023-04-30T03:53:46.352Z,20.20
2023-04-30T03:56:13.378Z,20.90
2023-04-30T03:58:40.342Z,19.80
2023-04-30T04:01:07.316Z,19.70
2023-04-30T04:03:35.877Z,21.30
2023-04-30T04:06:03.821Z,21.00
2023-04-30T04:08:31.694Z,19.57
2023-04-30T04:10:58.926Z,18.10
2023-04-30T04:13:26.313Z,18.67
2023-04-30T04:15:53.318Z,19.10
2023-04-30T04:18:20.616Z,18.53
2023-04-30T04:20:47.479Z,19.83
2023-04-30T04:23:14.544Z,19.10
2023-04-30T04:25:41.919Z,18.40
2023-04-30T04:28:08.783Z,18.07
2023-04-30T04:30:36.751Z,19.10
2023-04-30T04:33:04.459Z,18.97
2023-04-30T04:35:31.298Z,17.80
2023-04-30T04:37:59.213Z,19.83
2023-04-30T04:40:26.109Z,21.27
2023-04-30T04:42:52.940Z,23.37
2023-04-30T04:45:23.917Z,21.90
2023-04-30T04:47:51.069Z,21.63
2023-04-30T04:50:18.315Z,21.57
2023-04-30T04:52:45.139Z,20.80
2023-04-30T04:55:12.343Z,19.70
2023-04-30T04:57:39.249Z,19.00
2023-04-30T05:00:08.364Z,19.67
2023-04-30T05:02:35.251Z,17.33
2023-04-30T05:05:02.129Z,16.67
2023-04-30T05:07:29.131Z,16.73
2023-04-30T05:09:56.279Z,15.90
2023-04-30T05:12:23.343Z,15.40
2023-04-30T05:14:51.415Z,14.90
2023-04-30T05:17:18.326Z,15.37
2023-04-30T05:19:47.657Z,15.30
2023-04-30T05:22:14.773Z,15.10
2023-04-30T05:24:41.708Z,15.13
2023-04-30T05:27:09.356Z,12.87
2023-04-30T05:29:36.289Z,12.47
2023-04-30T05:32:03.302Z,11.63
2023-04-30T05:34:30.203Z,9.27
2023-04-30T05:36:57.320Z,8.70
2023-04-30T05:39:24.146Z,8.87
2023-04-30T05:41:52.899Z,9.57
2023-04-30T05:44:20.416Z,9.30
2023-04-30T05:46:47.245Z,10.40
2023-04-30T05:49:14.069Z,9.17
2023-04-30T05:51:40.978Z,9.57
2023-04-30T05:54:07.852Z,9.10
2023-04-30T05:56:34.735Z,8.50
2023-04-30T05:59:01.596Z,8.90
2023-04-30T06:01:29.477Z,8.77
2023-04-30T06:03:56.446Z,9.20
2023-04-30T06:06:23.291Z,10.10
2023-04-30T06:08:50.206Z,9.90
2023-04-30T06:11:17.166Z,10.23
2023-04-30T06:13:44.049Z,10.37
2023-04-30T06:16:10.980Z,10.00
2023-04-30T06:18:37.928Z,10.10
2023-04-30T06:21:04.817Z,9.70
2023-04-30T06:23:31.655Z,10.10
2023-04-30T06:25:58.541Z,10.30
2023-04-30T06:28:25.600Z,9.47
2023-04-30T06:30:54.334Z,10.27
2023-04-30T06:33:21.653Z,10.10
2023-04-30T06:35:48.491Z,9.90
2023-04-30T06:38:15.318Z,9.77
2023-04-30T06:40:42.271Z,9.80
2023-04-30T06:43:09.181Z,10.00
2023-04-30T06:45:36.076Z,9.40
2023-04-30T06:48:02.987Z,9.57
2023-04-30T06:50:29.868Z,10.40
2023-04-30T06:52:56.720Z,9.80
2023-04-30T06:55:24.467Z,9.37
2023-04-30T06:57:51.374Z,10.20
2023-04-30T07:00:18.543Z,10.00
2023-04-30T07:02:48.050Z,9.70
2023-04-30T07:05:15.037Z,11.03
2023-04-30T07:07:41.932Z,10.43
2023-04-30T07:10:09.077Z,10.10
2023-04-30T07:12:35.962Z,9.47
2023-04-30T07:15:03.592Z,10.50
2023-04-30T07:17:30.507Z,9.50
2023-04-30T07:19:57.550Z,11.10
2023-04-30T07:22:24.490Z,10.43
2023-04-30T07:24:51.464Z,9.97
2023-04-30T07:27:18.285Z,10.03
2023-04-30T07:29:45.321Z,10.03
2023-04-30T07:32:12.161Z,10.40
2023-04-30T07:34:39.434Z,10.70
2023-04-30T07:37:06.352Z,10.60
2023-04-30T07:39:33.245Z,9.93
2023-04-30T07:42:00.287Z,10.60
2023-04-30T07:44:27.091Z,11.00
2023-04-30T07:46:53.929Z,12.43
2023-04-30T07:49:20.791Z,11.97
2023-04-30T07:51:47.939Z,11.60
2023-04-30T07:54:15.012Z,11.67
2023-04-30T07:56:42.918Z,12.20
2023-04-30T07:59:09.815Z,12.33
2023-04-30T08:01:36.705Z,10.90
2023-04-30T08:04:03.749Z,11.03
2023-04-30T08:06:30.719Z,10.30
2023-04-30T08:08:57.552Z,10.50
2023-04-30T08:11:24.536Z,10.50
2023-04-30T08:13:51.413Z,10.63
2023-04-30T08:16:18.270Z,11.10
2023-04-30T08:18:46.846Z,10.23
2023-04-30T08:21:14.179Z,12.20
2023-04-30T08:23:40.989Z,10.40
2023-04-30T08:26:07.958Z,9.60
2023-04-30T08:28:34.767Z,10.50
2023-04-30T08:31:01.717Z,10.70
2023-04-30T08:33:28.564Z,9.93
2023-04-30T08:35:55.485Z,10.33
2023-04-30T08:38:22.413Z,9.80
2023-04-30T08:41:25.672Z,10.20
2023-04-30T08:43:54.087Z,9.40
2023-04-30T08:46:23.442Z,8.63
2023-04-30T08:48:50.549Z,8.53
2023-04-30T08:51:17.517Z,10.10
2023-04-30T08:53:45.562Z,9.63
2023-04-30T08:56:12.693Z,7.10
2023-04-30T08:58:41.032Z,9.43
2023-04-30T09:01:09.317Z,9.90
2023-04-30T09:03:37.252Z,8.93
2023-04-30T09:06:04.458Z,5.50
2023-04-30T09:08:49.098Z,6.17
2023-04-30T09:11:27.803Z,6.90
2023-04-30T09:14:00.991Z,8.03
2023-04-30T09:16:48.979Z,8.57
2023-04-30T09:19:27.257Z,7.27
2023-04-30T09:21:55.031Z,6.70
2023-04-30T09:24:21.979Z,7.77
2023-04-30T09:26:49.525Z,6.87
2023-04-30T09:29:16.666Z,8.00
2023-04-30T09:31:46.917Z,8.47
2023-04-30T09:34:14.231Z,7.17
2023-04-30T09:36:55.129Z,8.40
2023-04-30T09:39:22.186Z,8.03
2023-04-30T09:41:52.182Z,7.40
2023-04-30T09:44:35.899Z,6.67
2023-04-30T09:47:03.646Z,7.00
2023-04-30T09:49:30.874Z,5.50
2023-04-30T09:51:59.020Z,5.57
2023-04-30T09:54:31.367Z,5.80
2023-04-30T09:57:01.910Z,6.00
2023-04-30T09:59:31.722Z,5.30
2023-04-30T10:02:01.375Z,6.37
2023-04-30T10:04:36.727Z,7.00
2023-04-30T10:07:14.783Z,6.23
2023-04-30T10:09:56.192Z,5.23
2023-04-30T10:12:50.499Z,5.00
2023-04-30T10:15:31.120Z,5.53
2023-04-30T10:18:11.897Z,5.03
2023-04-30T10:20:40.145Z,3.57
2023-04-30T10:23:08.585Z,3.30
2023-04-30T10:25:38.559Z,2.80
2023-04-30T10:28:06.161Z,3.53
2023-04-30T10:30:34.318Z,4.70
2023-04-30T10:33:18.870Z,4.87
2023-04-30T10:35:48.147Z,3.13
2023-04-30T10:38:26.793Z,3.50
2023-04-30T10:40:58.931Z,2.90
2023-04-30T10:43:26.508Z,3.70
2023-04-30T10:45:54.078Z,4.80
2023-04-30T10:48:27.238Z,5.30
2023-04-30T10:50:58.714Z,5.90
2023-04-30T10:53:28.750Z,5.40
2023-04-30T10:56:07.416Z,6.40
2023-04-30T10:58:39.418Z,5.83
2023-04-30T11:01:08.683Z,5.33
2023-04-30T11:03:36.696Z,6.07
2023-04-30T11:06:19.887Z,5.40
2023-04-30T11:08:47.412Z,6.50
2023-04-30T11:17:24.920Z,6.57
2023-04-30T11:19:53.652Z,6.63
2023-04-30T11:22:24.786Z,7.30
2023-04-30T11:25:09.687Z,6.43
2023-04-30T11:27:38.402Z,7.43
2023-04-30T11:30:12.732Z,5.93
2023-04-30T11:32:40.098Z,5.33
2023-04-30T11:35:07.705Z,5.80
2023-04-30T11:37:45.608Z,6.10
2023-04-30T11:40:14.120Z,5.90
2023-04-30T11:42:47.145Z,6.97
2023-04-30T11:45:18.075Z,6.00
2023-04-30T11:47:46.192Z,7.50
2023-04-30T11:50:16.130Z,6.43
2023-04-30T11:52:49.810Z,6.17
2023-04-30T11:55:18.506Z,5.30
2023-04-30T11:57:47.567Z,4.77
2023-04-30T12:00:16.992Z,5.13
2023-04-30T12:02:48.702Z,4.10
2023-04-30T12:05:20.280Z,4.63
2023-04-30T12:07:48.038Z,4.60
2023-04-30T12:10:15.695Z,5.20
2023-04-30T12:12:45.703Z,4.63
2023-04-30T12:15:17.874Z,4.60
2023-04-30T12:17:46.304Z,4.70
2023-04-30T12:20:15.312Z,4.00
2023-04-30T12:22:43.774Z,4.70
2023-04-30T12:25:15.345Z,5.07
2023-04-30T12:27:45.593Z,6.00
2023-04-30T12:30:13.380Z,5.43
2023-04-30T12:32:41.376Z,5.43
2023-04-30T12:35:09.514Z,4.17
2023-04-30T12:37:36.543Z,3.90
2023-04-30T12:40:03.629Z,4.67
2023-04-30T12:42:34.708Z,5.20
2023-04-30T12:45:02.156Z,5.30
2023-04-30T12:47:30.190Z,5.23
2023-04-30T12:49:57.667Z,4.80
2023-04-30T12:52:26.735Z,4.80
2023-04-30T12:54:54.677Z,4.87
2023-04-30T12:57:21.603Z,5.27
2023-04-30T13:00:01.929Z,4.97
2023-04-30T13:02:29.767Z,6.23
2023-04-30T13:04:57.097Z,6.23
2023-04-30T13:07:24.043Z,4.97
2023-04-30T13:09:51.839Z,5.20
2023-04-30T13:12:19.588Z,4.40
2023-04-30T13:14:46.498Z,4.30
2023-04-30T13:17:14.457Z,4.03
2023-04-30T13:19:42.094Z,3.57
2023-04-30T13:22:09.002Z,3.60
2023-04-30T13:24:36.296Z,4.37
2023-04-30T13:27:04.264Z,3.40
2023-04-30T13:29:31.987Z,3.37
2023-04-30T13:31:59.401Z,4.17
2023-04-30T13:34:26.362Z,4.17
2023-04-30T13:36:53.890Z,4.10
2023-04-30T13:39:22.057Z,3.63
2023-04-30T13:41:49.388Z,3.60
2023-04-30T13:44:17.227Z,3.17
2023-04-30T13:46:44.199Z,2.90
2023-04-30T13:49:11.170Z,3.10
2023-04-30T13:51:38.148Z,3.03
2023-04-30T13:54:05.000Z,2.47
2023-04-30T13:56:32.288Z,2.70
2023-04-30T13:58:59.129Z,2.80
2023-04-30T14:01:26.372Z,2.40
2023-04-30T14:03:53.426Z,3.00
2023-04-30T14:06:20.581Z,3.43
2023-04-30T14:08:47.449Z,2.43
2023-04-30T14:11:14.273Z,2.40
2023-04-30T14:13:41.720Z,2.53
2023-04-30T14:16:08.947Z,2.73
2023-04-30T14:18:35.949Z,2.40
2023-04-30T14:21:02.882Z,2.57
2023-04-30T14:23:29.749Z,2.43
2023-04-30T14:25:56.699Z,2.00
2023-04-30T14:28:23.941Z,2.87
2023-04-30T14:30:50.853Z,2.10
2023-04-30T14:33:17.793Z,2.20
2023-04-30T14:35:45.685Z,2.47
2023-04-30T14:38:12.674Z,3.00
2023-04-30T14:40:39.572Z,2.80
2023-04-30T14:43:06.503Z,3.40
2023-04-30T14:45:33.919Z,1.70
2023-04-30T14:48:03.986Z,1.67
2023-04-30T14:50:32.637Z,1.80
2023-04-30T14:52:59.484Z,1.90
2023-04-30T14:55:26.367Z,2.37
2023-04-30T14:57:53.681Z,2.20
2023-04-30T15:00:20.667Z,1.63
2023-04-30T15:02:48.314Z,2.13
2023-04-30T15:05:15.248Z,2.30
2023-04-30T15:07:42.081Z,2.10
2023-04-30T15:10:09.670Z,2.37
2023-04-30T15:12:36.571Z,2.17
2023-04-30T15:20:34.416Z,1.90
2023-04-30T15:23:01.279Z,2.27
2023-04-30T15:25:28.188Z,1.73
2023-04-30T15:27:55.270Z,2.00
2023-04-30T15:30:22.220Z,2.03
2023-04-30T15:32:50.440Z,1.80
2023-04-30T15:35:17.899Z,1.90
2023-04-30T15:37:45.048Z,2.17
2023-04-30T15:40:15.425Z,2.47
2023-04-30T15:42:42.749Z,2.83
2023-04-30T15:45:10.649Z,3.17
2023-04-30T15:47:38.789Z,2.10
2023-04-30T15:50:06.562Z,2.07
2023-04-30T15:52:33.413Z,2.50
2023-04-30T15:55:00.600Z,2.67
2023-04-30T15:57:27.695Z,2.73
2023-04-30T15:59:55.190Z,2.27
2023-04-30T16:02:22.336Z,2.60
2023-04-30T16:04:49.159Z,1.90
2023-04-30T16:07:16.091Z,1.97
2023-04-30T16:09:45.891Z,2.57
2023-04-30T16:12:12.883Z,1.63
2023-04-30T16:14:40.093Z,1.63
2023-04-30T16:17:07.128Z,1.60
2023-04-30T16:22:11.087Z,2.00
2023-04-30T16:24:37.987Z,2.30
2023-04-30T16:27:04.913Z,2.23
2023-04-30T16:29:31.840Z,1.50
2023-04-30T16:31:58.724Z,1.87
2023-04-30T16:34:26.355Z,2.20
2023-04-30T16:36:53.247Z,2.10
2023-04-30T16:39:20.153Z,1.90
2023-04-30T16:41:47.409Z,2.23
2023-04-30T16:44:14.321Z,2.40
2023-04-30T16:46:41.179Z,2.87
2023-04-30T16:49:08.511Z,1.73
2023-04-30T16:51:35.425Z,2.00
2023-04-30T16:54:02.397Z,1.97
2023-04-30T16:56:32.239Z,1.80
2023-04-30T16:58:59.079Z,2.03
2023-04-30T17:01:26.259Z,2.07
2023-04-30T17:03:53.259Z,2.03
2023-04-30T17:06:20.227Z,2.37
2023-04-30T17:08:47.366Z,1.80
2023-04-30T17:11:14.337Z,1.90
2023-04-30T17:13:41.249Z,1.60
2023-04-30T17:16:08.156Z,1.83
2023-04-30T17:18:35.002Z,1.90
2023-04-30T17:21:01.929Z,2.00
2023-04-30T17:23:28.799Z,1.47
2023-04-30T17:25:55.886Z,1.33
2023-04-30T17:28:23.041Z,1.90
2023-04-30T17:30:50.144Z,2.13
2023-04-30T17:33:16.998Z,1.40
2023-04-30T17:35:43.884Z,1.53
2023-04-30T17:38:10.733Z,1.50
2023-04-30T17:40:37.583Z,1.87
2023-04-30T17:43:04.819Z,1.70
2023-04-30T17:45:31.668Z,1.53
2023-04-30T17:47:58.577Z,1.50
2023-04-30T17:50:25.470Z,1.37
2023-04-30T17:52:53.316Z,1.13
2023-04-30T17:55:20.138Z,1.33
2023-04-30T17:57:47.027Z,1.10
2023-04-30T18:00:14.455Z,1.20
2023-04-30T18:02:42.014Z,1.20
2023-04-30T18:05:10.467Z,1.13
2023-04-30T18:07:37.421Z,1.60
2023-04-30T18:10:04.469Z,1.40
2023-04-30T18:12:31.406Z,1.13
2023-04-30T18:14:59.163Z,1.20
2023-04-30T18:17:26.114Z,1.53
2023-04-30T18:19:53.183Z,1.20
2023-04-30T18:22:20.310Z,1.07
2023-04-30T18:27:25.015Z,0.90
2023-04-30T18:29:52.440Z,1.07
2023-04-30T18:32:19.773Z,1.00
2023-04-30T18:34:46.784Z,1.00
2023-04-30T18:37:13.806Z,1.20
2023-04-30T18:39:40.881Z,1.33
2023-04-30T18:42:07.791Z,1.43
2023-04-30T18:44:35.056Z,1.00
2023-04-30T18:47:01.948Z,1.00
2023-04-30T18:49:28.834Z,1.00
2023-04-30T18:51:56.646Z,1.17
2023-04-30T18:54:24.200Z,1.00
2023-04-30T18:56:51.049Z,1.10
2023-04-30T18:59:19.290Z,1.40
2023-04-30T19:01:46.191Z,1.10
2023-04-30T19:04:15.986Z,1.10
2023-04-30T19:06:45.780Z,1.10
2023-04-30T19:09:15.569Z,1.10
2023-04-30T19:11:42.386Z,1.63
2023-04-30T19:14:09.221Z,1.20
2023-04-30T19:16:36.026Z,1.77
2023-04-30T19:19:03.991Z,1.57
2023-04-30T19:21:32.440Z,1.40
2023-04-30T19:24:00.169Z,2.03
2023-04-30T19:26:28.010Z,1.50
2023-04-30T19:28:54.884Z,2.90
2023-04-30T19:31:22.776Z,4.40
2023-04-30T19:33:49.726Z,1.60
2023-04-30T19:36:17.485Z,3.33
2023-04-30T19:38:44.337Z,3.83
2023-04-30T19:41:11.796Z,1.63
2023-04-30T19:43:39.060Z,1.30
2023-04-30T19:46:06.018Z,1.90
2023-04-30T19:48:32.868Z,1.30
2023-04-30T19:51:02.566Z,1.70
2023-04-30T19:53:30.396Z,1.43
2023-04-30T19:55:57.301Z,1.40
2023-04-30T19:58:24.276Z,1.50
2023-04-30T20:00:51.102Z,1.20
2023-04-30T20:03:18.438Z,1.30
2023-04-30T20:05:45.317Z,1.20
2023-04-30T20:08:12.557Z,1.00
2023-04-30T20:10:41.132Z,1.60
2023-04-30T20:13:09.363Z,1.10
2023-04-30T20:15:36.488Z,1.40
2023-04-30T20:18:05.137Z,1.20
2023-04-30T20:20:32.237Z,1.50
2023-04-30T20:23:10.166Z,1.70
2023-04-30T20:25:37.146Z,2.80
2023-04-30T20:28:04.269Z,2.00
2023-04-30T20:30:31.546Z,1.73
2023-04-30T20:32:58.380Z,2.50
2023-04-30T20:35:25.307Z,2.13
2023-04-30T20:37:55.664Z,1.50
2023-04-30T20:40:22.478Z,2.13
2023-04-30T20:42:49.296Z,1.90
2023-04-30T20:45:16.173Z,2.50
2023-04-30T20:47:43.076Z,1.43
2023-04-30T20:50:10.169Z,1.87
2023-04-30T20:52:37.157Z,1.97
2023-04-30T20:55:04.221Z,1.80
2023-04-30T20:57:31.038Z,2.03
2023-04-30T20:59:58.154Z,2.30
2023-04-30T21:02:25.248Z,1.67
2023-04-30T21:04:52.105Z,1.70
2023-04-30T21:07:18.908Z,2.43
2023-04-30T21:09:45.780Z,1.73
2023-04-30T21:12:13.157Z,3.10
2023-04-30T21:14:40.004Z,1.80
2023-04-30T21:17:07.806Z,1.70
2023-04-30T21:19:37.978Z,2.57
2023-04-30T21:22:05.328Z,2.00
2023-04-30T21:24:32.273Z,2.37
2023-04-30T21:27:00.303Z,1.60
2023-04-30T21:29:27.241Z,2.00
2023-04-30T21:31:56.274Z,2.20
2023-04-30T21:34:23.208Z,2.40
2023-04-30T21:36:50.392Z,2.00
2023-04-30T21:39:17.635Z,2.63
2023-04-30T21:41:44.437Z,2.70
2023-04-30T21:44:11.344Z,1.93
2023-04-30T21:46:38.422Z,2.50
2023-04-30T21:49:05.293Z,2.83
2023-04-30T21:51:32.173Z,2.97
2023-04-30T21:53:58.979Z,2.83
2023-04-30T21:56:25.837Z,2.47
2023-04-30T21:58:52.668Z,2.10
2023-04-30T22:01:19.943Z,2.10
2023-04-30T22:03:46.850Z,2.90
2023-04-30T22:06:13.675Z,2.70
2023-04-30T22:08:40.602Z,2.60
2023-04-30T22:11:07.486Z,2.77
2023-04-30T22:13:34.294Z,2.10
2023-04-30T22:16:01.376Z,2.70
2023-04-30T22:18:28.327Z,2.97
2023-04-30T22:20:55.199Z,2.83
2023-04-30T22:23:22.330Z,4.00
2023-04-30T22:25:49.453Z,3.90
2023-04-30T22:28:18.103Z,2.67
2023-04-30T22:30:45.376Z,2.27
2023-04-30T22:33:12.441Z,2.60
2023-04-30T22:35:39.709Z,3.07
2023-04-30T22:38:07.864Z,2.83
2023-04-30T22:40:42.108Z,2.70
2023-04-30T22:43:10.090Z,3.53
2023-04-30T22:45:38.345Z,3.43
2023-04-30T22:48:05.697Z,2.70
2023-04-30T22:50:32.788Z,3.47
2023-04-30T22:53:00.029Z,3.00
2023-04-30T22:55:27.402Z,3.77
2023-04-30T22:57:54.319Z,2.30
2023-04-30T23:00:21.285Z,2.63
2023-04-30T23:02:48.203Z,3.40
2023-04-30T23:05:15.059Z,4.27
2023-04-30T23:07:42.194Z,3.07
2023-04-30T23:10:09.448Z,3.53
2023-04-30T23:12:36.550Z,3.20
2023-04-30T23:15:04.127Z,3.60
2023-04-30T23:17:31.039Z,3.67
2023-04-30T23:19:58.302Z,3.37
2023-04-30T23:22:25.441Z,3.70
2023-04-30T23:24:52.554Z,3.33
2023-04-30T23:27:19.427Z,2.97
2023-04-30T23:29:46.700Z,3.73
2023-04-30T23:32:13.537Z,4.20
2023-04-30T23:34:40.682Z,3.23
2023-04-30T23:37:07.655Z,3.73
2023-04-30T23:39:34.472Z,3.67
2023-04-30T23:42:02.632Z,3.20
2023-04-30T23:44:32.229Z,3.20
2023-04-30T23:47:01.039Z,3.10
2023-04-30T23:49:27.935Z,3.93
2023-04-30T23:51:54.851Z,3.37
2023-04-30T23:54:22.483Z,4.13
2023-04-30T23:56:49.891Z,4.10
2023-04-30T23:59:16.870Z,3.73
